Impacts TAF Board
For situational awareness. Not to be used for flight planning purposes.
IDs:

KSLC - Salt Lake City Intl, UT, US

Issued at 1735 UTC 20 Sep 2018
Updated at 1957 UTC 20 Sep 2018
Potential Impact None Slight Moderate High
Time1954Z 20/20Z 20/21Z 20/22Z 20/23Z 21/00Z 21/01Z 21/02Z 21/03Z 21/04Z 21/05Z 21/06Z 21/07Z 21/08Z>>
Type OBS PRVL PRVL PRVL PRVL PRVL PRVL PRVL PRVL PRVL PRVL PRVL PRVL PRVL
VIS 10 >6 >6 >6 >6 >6 >6 >6 >6 >6 >6 >6 >6 >6
CIG -- -- -- -- -- -- -- -- -- -- -- -- -- --
Cover FEW SKC SKC SKC SKC SKC SKC SKC SKC SKC SKC SKC SKC SKC
FltCat VFR VFR VFR VFR VFR VFR VFR VFR VFR VFR VFR VFR VFR VFR
WX -- -- -- -- -- -- -- -- -- -- -- -- -- --
WDir 290 330 330 330 330 330 330 330 150 150 150 150 150 150
WSpd 8 10 10 10 10 10 10 10 5 5 5 5 5 5
WGst 17 -- -- -- -- -- -- -- -- -- -- -- -- --
Raw TAF
KSLC 201735Z 2018/2124 33005KT P6SM SKC
  FM201900 33010KT P6SM SKC
  FM210300 15005KT P6SM SKC


Raw METAR
KSLC 201954Z 29008G17KT 10SM FEW011 22/M02 A3011 RMK AO2 SLP155 FU FEW011 FU S T02171022
KSLC 201854Z 29007KT 10SM FEW090 21/01 A3011 RMK AO2 SLP160 T02110011
KSLC 201754Z 31010KT 10SM FEW090 21/02 A3011 RMK AO2 SLP157 T02060022 10206 20122 50008
KSLC 201654Z 34005KT 10SM FEW085 19/01 A3011 RMK AO2 SLP155 T01940006

METAR Board
Radar Display
Forecast Discussion
For situational awareness. Not to be used for flight planning purposes.